Time;durP1;ratioP1;P1;durP2;ratioP2;P2;SDS_P1;SDS_P2;PMS_P1;PMS_P2;Temp;Humidity;BMP_temperature;BMP_pressure;BME280_temperature;BME280_humidity;BME280_pressure;Samples;Min_cycle;Max_cycle;Signal;HPM_P1;HPM_P2
2023/03/27 00:01:24;;;;;;;4.25;0.52;;;3.60;99.90;;;;;;5055609;28;20406;-79
2023/03/27 00:03:52;;;;;;;1.85;0.70;;;3.90;99.90;;;;;;5038537;28;20060;-79
2023/03/27 00:06:19;;;;;;;4.50;0.55;;;3.60;99.90;;;;;;5021397;28;20107;-79
2023/03/27 00:08:49;;;;;;;4.38;0.45;;;3.70;99.90;;;;;;5055893;28;20048;-79
2023/03/27 00:11:16;;;;;;;2.90;0.50;;;3.80;99.90;;;;;;5055135;28;20106;-79
2023/03/27 00:13:43;;;;;;;4.95;1.00;;;3.90;99.90;;;;;;5055013;28;20048;-79
2023/03/27 00:16:10;;;;;;;2.35;0.40;;;3.70;99.90;;;;;;5037094;28;20048;-79
2023/03/27 00:18:36;;;;;;;5.97;0.80;;;3.90;99.90;;;;;;5037760;28;20045;-80
2023/03/27 00:21:03;;;;;;;4.97;0.50;;;3.70;99.90;;;;;;5054970;28;20091;-78
2023/03/27 00:23:32;;;;;;;2.25;0.50;;;3.70;99.90;;;;;;5038096;28;20068;-79
2023/03/27 00:25:58;;;;;;;3.95;0.68;;;3.40;99.90;;;;;;5054986;28;20093;-79
2023/03/27 00:28:28;;;;;;;3.90;0.60;;;3.60;99.90;;;;;;5020668;28;20041;-78
2023/03/27 00:30:55;;;;;;;3.53;0.50;;;3.50;99.90;;;;;;5055669;28;20124;-80
2023/03/27 00:33:22;;;;;;;2.47;0.40;;;4.40;99.90;;;;;;5036830;28;20135;-80
2023/03/27 00:35:50;;;;;;;5.22;0.60;;;3.80;99.90;;;;;;5037248;28;20044;-79
2023/03/27 00:38:17;;;;;;;4.15;0.60;;;4.00;99.90;;;;;;5037200;28;20068;-79
2023/03/27 00:40:45;;;;;;;6.63;0.60;;;3.60;99.90;;;;;;5020592;28;20057;-79
2023/03/27 00:43:42;;;;;;;5.43;0.68;;;3.50;99.90;;;;;;5054294;28;20060;-80
2023/03/27 00:46:14;;;;;;;3.30;0.43;;;3.50;99.90;;;;;;5019197;28;20506;-77
2023/03/27 00:48:41;;;;;;;3.63;0.65;;;3.80;99.90;;;;;;5037739;28;20060;-79
2023/03/27 00:51:07;;;;;;;2.15;0.50;;;3.70;99.90;;;;;;5037642;28;20127;-80
2023/03/27 00:53:33;;;;;;;3.33;0.50;;;3.50;99.90;;;;;;5036886;28;20498;-80
2023/03/27 00:56:02;;;;;;;1.48;0.47;;;3.20;99.90;;;;;;5054759;28;20131;-80
2023/03/27 00:58:30;;;;;;;3.58;0.40;;;4.10;99.90;;;;;;5036744;28;20048;-80
2023/03/27 01:00:56;;;;;;;1.83;0.43;;;3.20;99.90;;;;;;5036509;28;20052;-79
2023/03/27 01:03:30;;;;;;;2.08;0.50;;;3.60;99.90;;;;;;5054217;28;20091;-78
2023/03/27 01:05:59;;;;;;;3.28;0.45;;;3.60;99.90;;;;;;5036907;28;20057;-79
2023/03/27 01:08:28;;;;;;;2.10;0.50;;;3.30;99.90;;;;;;5020056;28;20052;-79
2023/03/27 01:11:07;;;;;;;2.47;0.47;;;4.30;99.90;;;;;;5036021;28;20187;-80
2023/03/27 01:13:35;;;;;;;6.43;0.70;;;3.20;99.90;;;;;;5035955;28;20068;-79
2023/03/27 01:16:24;;;;;;;4.45;0.70;;;3.20;99.90;;;;;;5036351;28;20052;-79
2023/03/27 01:19:28;;;;;;;3.67;0.50;;;3.20;99.90;;;;;;5054792;28;20201;-80
2023/03/27 01:22:35;;;;;;;4.65;0.50;;;3.30;99.90;;;;;;5037022;28;20049;-80
2023/03/27 01:25:19;;;;;;;3.60;0.47;;;3.50;99.90;;;;;;5008748;28;20135;-80
2023/03/27 01:27:57;;;;;;;1.20;0.35;;;3.20;99.90;;;;;;5036581;28;20053;-80
2023/03/27 01:30:34;;;;;;;3.10;0.40;;;3.30;99.90;;;;;;5054665;28;20080;-79
2023/03/27 01:33:00;;;;;;;1.50;0.50;;;3.30;99.90;;;;;;5054440;28;20156;-79
2023/03/27 01:36:03;;;;;;;3.55;0.63;;;3.40;99.90;;;;;;5020343;28;20128;-80
2023/03/27 01:38:47;;;;;;;6.28;0.90;;;3.20;99.90;;;;;;5036412;28;20071;-79
2023/03/27 01:41:13;;;;;;;6.30;0.88;;;3.30;99.90;;;;;;5035658;28;20055;-79
2023/03/27 01:43:50;;;;;;;3.08;0.40;;;3.40;99.90;;;;;;5053823;28;20056;-79
2023/03/27 01:46:22;;;;;;;5.68;0.40;;;3.70;99.90;;;;;;5053552;28;20491;-79
2023/03/27 01:49:32;;;;;;;6.07;0.90;;;3.90;99.90;;;;;;5053543;28;20045;-80
2023/03/27 01:52:02;;;;;;;3.00;0.50;;;3.30;99.90;;;;;;5034443;28;20142;-80
2023/03/27 01:54:32;;;;;;;4.22;0.90;;;3.10;99.90;;;;;;5053706;28;20041;-80
2023/03/27 01:57:07;;;;;;;2.15;0.50;;;3.50;99.90;;;;;;5035322;28;20498;-79
2023/03/27 01:59:38;;;;;;;3.25;0.40;;;3.30;99.90;;;;;;5053443;28;20534;-80
2023/03/27 02:02:11;;;;;;;3.47;0.70;;;3.30;99.90;;;;;;5019705;28;20091;-79
2023/03/27 02:04:41;;;;;;;;;;;3.70;99.90;;;;;;5036882;28;20387;-79
2023/03/27 02:07:13;;;;;;;3.92;0.60;;;2.90;99.90;;;;;;5035786;28;20258;-80
2023/03/27 02:09:48;;;;;;;5.57;0.50;;;3.60;99.90;;;;;;5036072;28;20114;-80
2023/03/27 02:12:22;;;;;;;3.03;0.50;;;3.10;99.90;;;;;;5035970;28;20095;-79
2023/03/27 02:15:01;;;;;;;4.97;0.40;;;3.50;99.90;;;;;;5053221;28;20049;-79
2023/03/27 02:17:28;;;;;;;3.97;0.60;;;2.90;99.90;;;;;;5053325;28;20051;-79
2023/03/27 02:20:15;;;;;;;2.25;0.40;;;3.70;99.90;;;;;;5053242;28;20048;-80
2023/03/27 02:22:47;;;;;;;3.95;0.75;;;3.00;99.90;;;;;;5019226;28;20057;-79
2023/03/27 02:25:31;;;;;;;3.40;0.50;;;3.70;99.90;;;;;;5039209;28;20049;-79
2023/03/27 02:28:15;;;;;;;4.60;0.60;;;3.00;99.90;;;;;;5039831;28;20052;-81
2023/03/27 02:30:41;;;;;;;3.17;1.30;;;3.10;99.90;;;;;;5039214;28;20049;-75
2023/03/27 02:33:16;;;;;;;7.10;0.93;;;3.40;99.90;;;;;;5039282;28;20049;-75
2023/03/27 02:35:49;;;;;;;7.88;0.50;;;2.90;99.90;;;;;;5039083;28;20052;-75
2023/03/27 02:38:17;;;;;;;1.98;0.50;;;2.90;99.90;;;;;;5057890;28;20056;-75
2023/03/27 02:40:52;;;;;;;4.32;0.70;;;3.00;99.90;;;;;;5022762;28;20048;-75
2023/03/27 02:43:33;;;;;;;3.40;0.90;;;2.80;99.90;;;;;;5057397;28;20060;-75
2023/03/27 02:46:02;;;;;;;3.55;0.68;;;2.80;99.90;;;;;;5040113;28;20134;-75
2023/03/27 02:48:39;;;;;;;2.88;0.80;;;2.80;99.90;;;;;;5056728;28;20052;-75
2023/03/27 02:51:05;;;;;;;3.40;0.45;;;3.20;99.90;;;;;;5056835;28;20131;-74
2023/03/27 02:53:37;;;;;;;3.72;0.55;;;2.70;99.90;;;;;;5056708;28;20052;-74
2023/03/27 02:56:06;;;;;;;4.90;0.50;;;3.00;99.90;;;;;;5056167;28;20052;-75
2023/03/27 02:59:02;;;;;;;2.20;0.50;;;2.90;99.90;;;;;;5039718;28;20045;-74
2023/03/27 03:01:31;;;;;;;1.73;0.45;;;2.80;99.90;;;;;;5057085;28;20432;-75
2023/03/27 03:04:23;;;;;;;3.72;0.75;;;3.00;99.90;;;;;;5056718;28;20067;-74
2023/03/27 03:06:49;;;;;;;1.63;0.40;;;3.00;99.90;;;;;;5056472;28;20053;-74
2023/03/27 03:09:15;;;;;;;2.08;0.60;;;3.30;99.90;;;;;;5038820;28;20045;-74
2023/03/27 03:11:50;;;;;;;3.47;0.60;;;2.60;99.90;;;;;;5038125;28;20517;-73
2023/03/27 03:14:29;;;;;;;2.72;0.40;;;2.50;99.90;;;;;;5038683;28;20053;-73
2023/03/27 03:16:55;;;;;;;2.67;0.40;;;2.50;99.90;;;;;;5039246;28;20049;-74
2023/03/27 03:19:22;;;;;;;2.75;0.50;;;3.00;99.90;;;;;;5056188;28;20402;-74
2023/03/27 03:21:49;;;;;;;2.38;0.57;;;2.70;99.90;;;;;;5038351;28;20128;-74
2023/03/27 03:24:16;;;;;;;4.95;0.60;;;2.60;99.90;;;;;;5038503;28;20410;-74
2023/03/27 03:26:43;;;;;;;1.70;0.35;;;2.40;99.90;;;;;;5056636;28;20045;-74
2023/03/27 03:29:10;;;;;;;4.65;0.43;;;2.30;99.90;;;;;;5038144;28;20581;-73
2023/03/27 03:31:42;;;;;;;0.70;0.40;;;2.20;99.90;;;;;;5056556;28;20047;-74
2023/03/27 03:34:12;;;;;;;1.10;0.47;;;2.40;99.90;;;;;;5039105;28;20494;-74
2023/03/27 03:36:40;;;;;;;5.07;0.50;;;2.50;99.90;;;;;;5055176;28;20044;-74
2023/03/27 03:39:07;;;;;;;2.50;0.43;;;2.50;99.90;;;;;;5022034;28;20099;-74
2023/03/27 03:41:32;;;;;;;5.40;0.60;;;2.40;99.90;;;;;;5021343;28;20045;-72
2023/03/27 03:43:58;;;;;;;5.25;0.50;;;3.00;99.90;;;;;;5037738;28;20049;-73
2023/03/27 03:46:24;;;;;;;5.60;0.60;;;2.70;99.90;;;;;;5056197;28;20398;-72
2023/03/27 03:48:50;;;;;;;2.83;0.82;;;2.70;99.90;;;;;;5038069;28;20041;-73
2023/03/27 03:51:15;;;;;;;3.80;0.80;;;2.50;99.90;;;;;;5038439;28;20506;-73
2023/03/27 03:53:41;;;;;;;4.20;0.73;;;2.30;99.90;;;;;;5055494;28;20045;-73
2023/03/27 03:56:07;;;;;;;5.07;0.85;;;2.60;99.90;;;;;;5056011;28;20382;-73
2023/03/27 03:58:33;;;;;;;6.50;1.23;;;2.60;99.90;;;;;;5021122;28;20049;-73
2023/03/27 04:00:58;;;;;;;4.70;0.60;;;2.50;99.90;;;;;;5037675;28;20102;-73
2023/03/27 04:03:26;;;;;;;2.38;0.75;;;2.40;99.90;;;;;;5037863;28;20100;-74
2023/03/27 04:05:53;;;;;;;9.98;0.90;;;2.70;99.90;;;;;;5037561;28;20517;-74
2023/03/27 04:08:18;;;;;;;3.38;0.70;;;3.20;99.90;;;;;;5055363;28;20045;-73
2023/03/27 04:10:44;;;;;;;4.80;0.50;;;2.50;99.90;;;;;;5055217;28;20084;-73
2023/03/27 04:13:10;;;;;;;4.97;0.88;;;3.10;99.90;;;;;;5055729;28;20111;-75
2023/03/27 04:15:36;;;;;;;3.10;0.70;;;2.80;99.90;;;;;;5037397;28;20049;-74
2023/03/27 04:18:03;;;;;;;4.35;0.70;;;3.30;99.90;;;;;;5038191;28;20048;-75
2023/03/27 04:20:33;;;;;;;3.47;0.88;;;2.80;99.90;;;;;;5055125;28;20111;-75
2023/03/27 04:23:01;;;;;;;6.18;0.80;;;3.20;99.90;;;;;;5055024;28;20049;-74
2023/03/27 04:25:27;;;;;;;2.60;0.80;;;3.10;99.90;;;;;;5055526;28;20045;-74
2023/03/27 04:27:53;;;;;;;6.47;1.48;;;3.30;99.90;;;;;;5037090;28;20179;-73
2023/03/27 04:30:24;;;;;;;3.53;0.60;;;3.00;99.90;;;;;;5054963;28;20127;-75
2023/03/27 04:32:51;;;;;;;3.72;0.70;;;2.60;99.90;;;;;;5038173;28;20041;-74
2023/03/27 04:35:18;;;;;;;4.78;1.33;;;2.90;99.90;;;;;;5054932;28;20045;-74
2023/03/27 04:37:45;;;;;;;5.35;1.13;;;2.30;99.90;;;;;;5055489;28;20052;-74
2023/03/27 04:40:13;;;;;;;3.47;0.70;;;2.30;99.90;;;;;;5037419;28;20398;-75
2023/03/27 04:42:42;;;;;;;3.80;1.13;;;2.40;99.90;;;;;;5036756;28;20076;-75
2023/03/27 04:45:16;;;;;;;3.67;0.82;;;2.80;99.90;;;;;;5054313;28;20500;-75
2023/03/27 04:47:42;;;;;;;4.07;0.80;;;2.40;99.90;;;;;;5055334;28;20387;-74
2023/03/27 04:50:10;;;;;;;3.03;0.73;;;2.80;99.90;;;;;;5054563;28;20045;-74
2023/03/27 04:52:36;;;;;;;4.70;0.70;;;2.30;99.90;;;;;;5036748;28;20390;-74
2023/03/27 04:55:04;;;;;;;3.05;0.60;;;2.80;99.90;;;;;;5055215;28;20041;-74
2023/03/27 04:57:31;;;;;;;9.23;1.00;;;2.10;99.90;;;;;;5054491;28;20049;-74
2023/03/27 04:59:58;;;;;;;5.93;1.15;;;2.70;99.90;;;;;;5036826;28;20067;-75
2023/03/27 05:02:27;;;;;;;5.55;0.75;;;2.50;99.90;;;;;;5054283;28;20049;-75
2023/03/27 05:05:00;;;;;;;6.10;1.02;;;2.40;99.90;;;;;;5054204;28;20084;-75
2023/03/27 05:07:27;;;;;;;5.18;0.88;;;2.20;99.90;;;;;;5054756;28;20053;-74
2023/03/27 05:09:53;;;;;;;8.85;0.95;;;2.40;99.90;;;;;;5054473;28;20057;-73
2023/03/27 05:12:19;;;;;;;4.40;0.77;;;2.20;99.90;;;;;;5036475;28;20441;-73
2023/03/27 05:14:47;;;;;;;3.53;0.73;;;1.70;99.90;;;;;;5036533;28;20470;-72
2023/03/27 05:17:14;;;;;;;5.28;1.10;;;3.20;99.90;;;;;;5019634;28;20055;-74
2023/03/27 05:19:40;;;;;;;4.95;0.82;;;2.70;99.90;;;;;;5036214;28;20056;-74
2023/03/27 05:22:06;;;;;;;9.43;0.93;;;2.70;99.90;;;;;;5036488;28;20044;-73
2023/03/27 05:24:32;;;;;;;5.53;0.60;;;2.80;99.90;;;;;;5036201;28;20060;-75
2023/03/27 05:26:58;;;;;;;4.95;0.70;;;2.40;99.90;;;;;;5053737;28;20044;-75
2023/03/27 05:29:24;;;;;;;6.28;1.10;;;2.70;99.90;;;;;;5036179;28;20175;-74
2023/03/27 05:31:50;;;;;;;4.07;0.88;;;2.70;99.90;;;;;;5036659;28;20045;-75
2023/03/27 05:34:18;;;;;;;3.97;0.63;;;2.50;99.90;;;;;;5036040;28;20122;-74
2023/03/27 05:36:45;;;;;;;1.85;0.30;;;2.50;99.90;;;;;;5054034;28;20044;-75
2023/03/27 05:39:11;;;;;;;3.13;0.43;;;2.80;99.90;;;;;;5035662;28;20084;-75
2023/03/27 05:41:37;;;;;;;4.95;0.50;;;2.80;99.90;;;;;;5053340;28;20091;-75
2023/03/27 05:44:03;;;;;;;2.65;0.30;;;2.50;99.90;;;;;;5053156;28;20484;-75
2023/03/27 05:46:30;;;;;;;5.22;0.50;;;2.90;99.90;;;;;;5035879;28;20111;-74
2023/03/27 05:48:58;;;;;;;2.53;0.40;;;2.90;99.90;;;;;;5053481;28;20070;-74
2023/03/27 05:51:24;;;;;;;3.15;0.30;;;2.50;99.90;;;;;;5054134;28;20351;-74
2023/03/27 05:53:50;;;;;;;1.10;0.30;;;2.70;99.90;;;;;;5035847;28;20044;-74
2023/03/27 05:56:16;;;;;;;1.35;0.20;;;2.50;99.90;;;;;;5035635;28;20045;-75
2023/03/27 05:58:42;;;;;;;2.80;0.57;;;2.70;99.90;;;;;;5035547;28;20501;-75
2023/03/27 06:01:09;;;;;;;5.65;0.40;;;2.70;99.90;;;;;;5053833;28;20049;-75
2023/03/27 06:03:37;;;;;;;2.75;0.47;;;2.70;99.90;;;;;;5035468;28;20525;-75
2023/03/27 06:06:10;;;;;;;4.72;0.80;;;2.60;99.90;;;;;;5035439;28;20052;-75
2023/03/27 06:08:36;;;;;;;2.80;0.38;;;2.80;99.90;;;;;;5035709;28;20133;-75
2023/03/27 06:11:09;;;;;;;4.78;0.70;;;2.60;99.90;;;;;;5053659;28;20087;-76
2023/03/27 06:13:36;;;;;;;3.30;0.40;;;2.60;99.90;;;;;;5053224;28;20455;-76
2023/03/27 06:16:04;;;;;;;1.70;0.30;;;2.80;99.90;;;;;;5035254;28;20049;-75
2023/03/27 06:18:31;;;;;;;1.42;0.40;;;2.60;99.90;;;;;;5053940;28;20045;-76
2023/03/27 06:20:57;;;;;;;2.35;0.50;;;2.80;99.90;;;;;;5003037;28;20092;-76
2023/03/27 06:23:23;;;;;;;2.53;0.38;;;3.20;99.90;;;;;;5053093;28;20045;-76
2023/03/27 06:25:50;;;;;;;2.13;0.20;;;2.70;99.90;;;;;;5053673;28;20490;-75
2023/03/27 06:28:15;;;;;;;3.25;0.30;;;3.10;99.90;;;;;;5019221;28;20448;-75
2023/03/27 06:30:41;;;;;;;3.38;0.40;;;2.80;99.90;;;;;;5053573;28;20152;-76
2023/03/27 06:33:08;;;;;;;2.72;0.55;;;3.20;99.90;;;;;;5035525;28;20045;-74
2023/03/27 06:35:34;;;;;;;1.17;0.45;;;3.00;99.90;;;;;;5052822;28;20040;-74
2023/03/27 06:38:01;;;;;;;1.73;0.30;;;2.80;99.90;;;;;;5052988;28;20045;-75
2023/03/27 06:40:28;;;;;;;4.07;0.70;;;2.70;99.90;;;;;;5052934;28;20134;-75
2023/03/27 06:42:59;;;;;;;3.22;0.50;;;3.10;99.90;;;;;;5002243;28;20061;-74
2023/03/27 06:45:29;;;;;;;2.05;0.43;;;2.80;99.90;;;;;;5035139;28;20048;-74
2023/03/27 06:48:01;;;;;;;4.10;0.60;;;2.80;99.90;;;;;;5035555;28;20098;-74
2023/03/27 06:50:29;;;;;;;4.68;0.50;;;3.30;99.90;;;;;;5053615;28;20041;-75
2023/03/27 06:52:54;;;;;;;2.35;0.40;;;3.30;99.90;;;;;;5053315;28;20049;-74
2023/03/27 06:55:22;;;;;;;3.80;0.40;;;3.30;99.90;;;;;;5035108;28;20139;-73
2023/03/27 06:57:50;;;;;;;3.38;0.40;;;3.00;99.90;;;;;;5052719;28;20053;-74
2023/03/27 07:00:18;;;;;;;4.63;0.50;;;3.60;99.90;;;;;;5053044;28;20049;-74
2023/03/27 07:02:57;;;;;;;3.38;0.60;;;3.20;99.90;;;;;;5019212;28;20140;-74
2023/03/27 07:05:25;;;;;;;5.55;0.63;;;3.40;99.90;;;;;;5053180;28;20052;-74
2023/03/27 07:07:51;;;;;;;2.88;0.80;;;3.30;99.90;;;;;;5052785;28;20087;-75
2023/03/27 07:10:17;;;;;;;2.28;0.43;;;3.90;99.90;;;;;;5035024;28;20118;-74
2023/03/27 07:12:51;;;;;;;4.18;1.05;;;3.30;99.90;;;;;;5056366;28;20063;-74
2023/03/27 07:15:18;;;;;;;2.95;0.57;;;4.10;99.90;;;;;;5056226;28;20485;-74
2023/03/27 07:17:50;;;;;;;5.57;0.50;;;3.30;99.90;;;;;;5038394;28;20057;-75
2023/03/27 07:20:16;;;;;;;3.95;0.60;;;3.90;99.90;;;;;;5038649;28;20045;-74
2023/03/27 07:22:42;;;;;;;2.58;0.50;;;3.60;99.90;;;;;;5038216;28;20048;-74
2023/03/27 07:25:10;;;;;;;2.63;0.50;;;3.70;99.90;;;;;;5056044;28;20052;-74
2023/03/27 07:27:36;;;;;;;3.25;0.75;;;3.60;99.90;;;;;;5056746;28;20067;-74
2023/03/27 07:30:03;;;;;;;4.95;1.15;;;3.80;99.90;;;;;;5055946;28;20128;-74
2023/03/27 07:32:31;;;;;;;2.40;0.50;;;4.10;99.90;;;;;;5038085;28;20056;-74
2023/03/27 07:34:57;;;;;;;4.32;0.80;;;4.10;99.90;;;;;;5022811;28;20056;-76
2023/03/27 07:37:24;;;;;;;2.95;0.60;;;4.10;99.90;;;;;;5045033;28;20049;-78
2023/03/27 07:39:50;;;;;;;4.03;0.60;;;4.20;99.90;;;;;;5038420;28;20049;-81
2023/03/27 07:42:16;;;;;;;4.43;0.45;;;4.30;99.90;;;;;;5021566;28;20041;-82
2023/03/27 07:44:41;;;;;;;2.47;0.55;;;4.30;99.90;;;;;;5035010;28;20088;-80
2023/03/27 07:47:08;;;;;;;4.22;0.68;;;4.30;99.90;;;;;;5035216;28;20483;-84
2023/03/27 07:49:33;;;;;;;4.30;0.70;;;4.00;99.90;;;;;;5036030;28;20080;-79
2023/03/27 07:51:59;;;;;;;7.03;0.70;;;4.00;99.90;;;;;;5034485;28;20046;-80
2023/03/27 07:54:25;;;;;;;2.25;0.50;;;4.30;99.90;;;;;;5039072;28;20045;-77
2023/03/27 07:56:52;;;;;;;4.82;0.63;;;4.10;99.90;;;;;;5035614;28;20045;-76
2023/03/27 07:59:20;;;;;;;3.30;0.30;;;4.70;99.90;;;;;;5036236;28;20387;-78
2023/03/27 08:01:49;;;;;;;1.48;0.50;;;4.50;99.90;;;;;;5018098;28;20187;-80
2023/03/27 08:04:17;;;;;;;0.75;0.30;;;4.10;99.90;;;;;;5035414;28;20053;-80
2023/03/27 08:06:43;;;;;;;1.85;0.32;;;4.90;99.90;;;;;;5035546;28;20033;-83
2023/03/27 08:09:09;;;;;;;1.67;0.30;;;4.30;99.90;;;;;;5018081;28;20467;-85
2023/03/27 08:11:39;;;;;;;1.50;0.30;;;4.30;99.90;;;;;;5034661;28;20184;-81
2023/03/27 08:14:06;;;;;;;1.00;0.30;;;4.90;99.90;;;;;;5018294;28;20056;-83
2023/03/27 08:16:32;;;;;;;3.30;0.65;;;4.60;99.90;;;;;;5034123;28;20057;-86
2023/03/27 08:19:00;;;;;;;1.02;0.30;;;5.00;99.90;;;;;;5035040;28;20060;-81
2023/03/27 08:21:25;;;;;;;3.05;0.77;;;4.50;99.90;;;;;;5033681;28;20113;-82
2023/03/27 08:23:51;;;;;;;3.05;0.50;;;4.30;99.90;;;;;;5034285;28;20046;-79
2023/03/27 08:26:17;;;;;;;6.47;1.05;;;4.70;99.90;;;;;;5033764;28;20048;-81
2023/03/27 08:28:43;;;;;;;2.72;0.95;;;4.60;99.90;;;;;;5018728;28;20046;-83
2023/03/27 08:31:14;;;;;;;4.57;0.57;;;4.50;99.90;;;;;;5021753;28;20049;-76
2023/03/27 08:33:43;;;;;;;3.45;0.65;;;4.70;99.90;;;;;;5035066;28;20045;-78
2023/03/27 08:36:10;;;;;;;3.03;0.40;;;4.60;99.90;;;;;;5017387;28;20487;-80
2023/03/27 08:38:38;;;;;;;2.72;0.50;;;4.70;99.90;;;;;;5033514;28;20064;-76
2023/03/27 08:41:05;;;;;;;2.40;0.50;;;4.90;99.90;;;;;;5034687;28;20049;-79
2023/03/27 08:43:42;;;;;;;4.07;0.93;;;4.90;99.90;;;;;;5033454;28;20069;-80
2023/03/27 08:46:33;;;;;;;4.93;0.60;;;5.00;99.90;;;;;;5034624;28;20060;-83
2023/03/27 08:49:32;;;;;;;2.55;0.40;;;4.90;99.90;;;;;;5034003;28;20045;-78
2023/03/27 08:52:14;;;;;;;3.85;0.63;;;4.80;99.90;;;;;;5019294;28;20058;-79
2023/03/27 08:54:44;;;;;;;3.80;0.70;;;4.90;99.90;;;;;;5017115;28;20556;-80
2023/03/27 08:57:30;;;;;;;5.30;1.20;;;4.80;99.90;;;;;;5033214;28;20099;-85
2023/03/27 09:00:00;;;;;;;4.90;0.63;;;5.10;99.90;;;;;;5017731;28;20103;-83
2023/03/27 09:02:34;;;;;;;4.50;0.45;;;4.80;99.90;;;;;;5034165;28;20110;-79
2023/03/27 09:05:24;;;;;;;1.98;0.50;;;5.10;99.90;;;;;;5033352;28;20286;-77
2023/03/27 09:08:15;;;;;;;4.28;0.65;;;5.30;99.90;;;;;;5016973;28;20089;-80
2023/03/27 09:11:15;;;;;;;6.53;0.50;;;5.20;99.90;;;;;;5034087;28;20093;-80
2023/03/27 09:13:49;;;;;;;3.78;0.40;;;5.40;99.90;;;;;;5011383;28;20542;-80
2023/03/27 09:16:30;;;;;;;4.53;0.47;;;5.80;99.90;;;;;;5033257;28;20434;-78
2023/03/27 09:19:15;;;;;;;2.33;0.50;;;5.90;99.90;;;;;;5033388;28;20049;-77
2023/03/27 09:21:48;;;;;;;4.90;0.50;;;5.40;99.90;;;;;;5017402;28;20053;-78
2023/03/27 09:24:34;;;;;;;3.22;0.60;;;5.50;99.90;;;;;;5032520;28;20487;-80
2023/03/27 09:27:13;;;;;;;5.00;0.52;;;5.20;99.90;;;;;;5033348;28;20045;-79
2023/03/27 09:29:40;;;;;;;2.78;0.40;;;5.40;99.90;;;;;;5033405;28;20038;-79
2023/03/27 09:32:15;;;;;;;4.78;0.30;;;5.00;99.90;;;;;;4999932;28;20184;-81
2023/03/27 09:34:42;;;;;;;3.83;0.88;;;5.40;99.90;;;;;;5033194;28;20061;-81
2023/03/27 09:37:16;;;;;;;2.90;0.40;;;5.40;99.90;;;;;;5016942;28;20144;-82
2023/03/27 09:39:49;;;;;;;4.05;0.70;;;5.70;99.90;;;;;;5033056;28;20045;-79
2023/03/27 09:42:36;;;;;;;1.95;0.30;;;5.80;99.90;;;;;;5033216;28;20053;-77
2023/03/27 09:45:05;;;;;;;2.63;1.13;;;5.70;99.90;;;;;;5032437;28;20057;-78
2023/03/27 09:47:50;;;;;;;1.70;0.40;;;5.90;99.90;;;;;;5032925;28;20045;-75
2023/03/27 09:50:38;;;;;;;3.95;0.30;;;5.80;99.90;;;;;;5033662;28;20053;-76
2023/03/27 09:53:19;;;;;;;4.07;0.30;;;5.90;99.90;;;;;;5034174;28;20092;-77
2023/03/27 09:55:59;;;;;;;1.83;0.30;;;6.90;99.90;;;;;;5032480;28;20037;-77
2023/03/27 09:58:28;;;;;;;3.63;0.40;;;5.90;99.90;;;;;;5016430;28;20535;-75
2023/03/27 10:01:12;;;;;;;2.20;0.30;;;6.10;99.90;;;;;;5032190;28;20088;-79
2023/03/27 10:03:43;;;;;;;3.42;0.30;;;6.00;99.90;;;;;;5032296;28;20096;-75
2023/03/27 10:06:13;;;;;;;2.63;0.47;;;6.00;99.90;;;;;;5034232;28;20391;-76
2023/03/27 10:08:49;;;;;;;2.20;0.50;;;6.20;99.90;;;;;;5033846;28;20071;-78
2023/03/27 10:11:19;;;;;;;2.97;0.30;;;6.30;99.90;;;;;;5016111;28;20056;-79
2023/03/27 10:13:49;;;;;;;1.88;0.20;;;6.30;99.90;;;;;;5032814;28;20115;-77
2023/03/27 10:16:18;;;;;;;4.35;0.45;;;6.40;99.90;;;;;;5032275;28;20052;-78
2023/03/27 10:18:51;;;;;;;1.83;0.28;;;6.40;99.90;;;;;;5033182;28;20080;-78
2023/03/27 10:21:32;;;;;;;2.55;0.30;;;6.30;99.90;;;;;;5032326;28;20101;-77
2023/03/27 10:24:20;;;;;;;2.53;0.32;;;6.40;99.90;;;;;;5033227;28;20052;-78
2023/03/27 10:26:47;;;;;;;4.10;0.40;;;6.70;99.90;;;;;;5033553;28;20128;-79
2023/03/27 10:29:33;;;;;;;4.00;0.30;;;6.30;99.90;;;;;;5038198;28;20045;-75
2023/03/27 10:32:02;;;;;;;3.80;0.40;;;6.20;99.90;;;;;;5034095;28;20041;-76
2023/03/27 10:34:31;;;;;;;3.00;0.40;;;6.10;99.90;;;;;;5033865;28;20116;-76
2023/03/27 10:37:00;;;;;;;1.35;0.20;;;6.40;99.90;;;;;;5032272;28;20503;-79
2023/03/27 10:39:28;;;;;;;1.58;0.22;;;6.50;99.90;;;;;;5016613;28;20092;-76
2023/03/27 10:41:55;;;;;;;2.53;0.40;;;6.70;99.90;;;;;;5033003;28;20053;-75
2023/03/27 10:44:24;;;;;;;1.95;0.30;;;6.90;99.90;;;;;;5050304;28;20068;-76
2023/03/27 10:46:51;;;;;;;3.70;0.80;;;6.60;99.90;;;;;;5039194;28;20072;-74
2023/03/27 10:49:54;;;;;;;1.95;0.35;;;6.70;99.90;;;;;;5039720;28;20102;-75
2023/03/27 10:52:27;;;;;;;4.43;0.70;;;6.70;99.90;;;;;;5005220;28;20064;-74
2023/03/27 10:55:11;;;;;;;2.33;0.22;;;6.40;99.90;;;;;;5056905;28;20463;-76
2023/03/27 10:57:41;;;;;;;2.85;0.30;;;6.30;99.90;;;;;;5038616;28;20041;-79
2023/03/27 11:00:18;;;;;;;3.13;0.50;;;6.50;99.90;;;;;;5007156;28;20523;-75
2023/03/27 11:03:08;;;;;;;3.00;0.40;;;6.90;99.90;;;;;;5038794;28;20045;-83
2023/03/27 11:05:43;;;;;;;3.90;0.22;;;6.80;99.90;;;;;;5057110;28;20052;-77
2023/03/27 11:08:30;;;;;;;3.33;0.30;;;6.60;99.90;;;;;;5038552;28;20498;-73
2023/03/27 11:11:04;;;;;;;4.22;0.40;;;6.40;99.90;;;;;;5039331;28;20056;-77
2023/03/27 11:13:33;;;;;;;2.47;0.30;;;6.00;99.90;;;;;;5039014;28;20045;-75
2023/03/27 11:16:27;;;;;;;2.50;0.70;;;6.10;99.90;;;;;;5056125;28;20037;-75
2023/03/27 11:19:11;;;;;;;2.33;0.35;;;6.00;99.90;;;;;;5038871;28;20044;-77
2023/03/27 11:21:46;;;;;;;;;;;6.20;99.90;;;;;;5039877;28;20102;-76
2023/03/27 11:24:32;;;;;;;4.07;0.30;;;6.20;99.90;;;;;;5055911;28;19921;-73
2023/03/27 11:27:26;;;;;;;4.10;0.50;;;6.30;99.90;;;;;;5055847;28;20045;-73
2023/03/27 11:30:04;;;;;;;4.70;0.50;;;6.40;99.90;;;;;;5026913;28;20082;-73
2023/03/27 11:32:40;;;;;;;4.50;0.73;;;6.70;99.90;;;;;;5056739;28;20441;-72
2023/03/27 11:35:21;;;;;;;0.40;0.20;;;6.80;99.90;;;;;;5055778;28;20045;-78
2023/03/27 11:38:01;;;;;;;2.72;0.30;;;6.70;99.90;;;;;;5038783;28;20049;-77
2023/03/27 11:40:38;;;;;;;2.42;0.45;;;6.80;99.90;;;;;;5038582;28;20041;-79
2023/03/27 11:43:04;;;;;;;1.20;0.40;;;7.00;99.90;;;;;;5021670;28;20049;-79
2023/03/27 11:45:42;;;;;;;1.48;0.30;;;7.30;99.90;;;;;;5055673;28;20122;-79
2023/03/27 11:48:29;;;;;;;4.85;0.40;;;6.90;99.90;;;;;;5038945;28;20048;-75
2023/03/27 11:51:02;;;;;;;2.67;0.90;;;6.50;99.90;;;;;;5037892;28;20045;-74
2023/03/27 11:53:47;;;;;;;2.22;0.40;;;6.60;99.90;;;;;;5055403;28;20527;-75
2023/03/27 11:56:31;;;;;;;4.22;0.50;;;6.10;99.90;;;;;;5054631;28;20045;-76
2023/03/27 11:59:17;;;;;;;2.92;0.50;;;6.40;99.90;;;;;;5037543;28;20068;-75
2023/03/27 12:01:50;;;;;;;2.50;0.40;;;6.70;99.90;;;;;;5054523;28;20604;-79
2023/03/27 12:04:33;;;;;;;3.35;0.40;;;6.80;99.90;;;;;;5037497;28;20049;-79
2023/03/27 12:07:17;;;;;;;1.70;0.45;;;6.80;99.90;;;;;;5038680;28;20068;-78
2023/03/27 12:09:57;;;;;;;2.70;0.40;;;6.90;99.90;;;;;;5055335;28;20086;-77
2023/03/27 12:12:34;;;;;;;3.53;0.40;;;6.80;99.90;;;;;;5055256;28;20041;-78
2023/03/27 12:15:25;;;;;;;5.07;0.45;;;6.80;99.90;;;;;;5037393;28;20072;-79
2023/03/27 12:18:31;;;;;;;3.85;0.43;;;6.60;99.90;;;;;;5055082;28;20115;-78
2023/03/27 12:21:22;;;;;;;2.33;0.40;;;6.90;99.90;;;;;;4954624;29;20047;-76
2023/03/27 12:23:54;;;;;;;1.77;0.30;;;6.90;99.90;;;;;;5055787;28;20045;-78
2023/03/27 12:26:36;;;;;;;2.95;0.57;;;6.80;99.90;;;;;;5055721;28;20049;-73
2023/03/27 12:29:43;;;;;;;1.33;0.32;;;7.10;99.90;;;;;;5021154;28;20139;-78
2023/03/27 12:32:30;;;;;;;4.93;0.50;;;7.10;99.90;;;;;;4938986;29;20043;-76
2023/03/27 12:35:23;;;;;;;3.15;0.40;;;7.20;99.90;;;;;;5035042;28;20061;-79
2023/03/27 12:38:03;;;;;;;3.33;0.47;;;7.30;99.90;;;;;;5049960;28;20049;-76
2023/03/27 12:40:38;;;;;;;5.32;0.40;;;7.40;99.90;;;;;;5037201;28;20051;-80
2023/03/27 12:43:19;;;;;;;2.47;0.40;;;7.40;99.90;;;;;;5054792;28;20103;-79
2023/03/27 12:46:13;;;;;;;2.45;0.68;;;7.30;99.90;;;;;;5037852;28;20139;-77
2023/03/27 12:49:11;;;;;;;8.32;0.40;;;7.10;99.90;;;;;;5055377;28;20414;-77
2023/03/27 12:51:50;;;;;;;3.30;0.30;;;6.80;99.90;;;;;;5055170;28;20119;-82
2023/03/27 12:54:29;;;;;;;2.75;0.40;;;7.10;99.90;;;;;;5037894;28;20405;-78
2023/03/27 12:57:27;;;;;;;2.72;0.50;;;7.20;99.90;;;;;;5036858;28;20128;-80
2023/03/27 12:59:57;;;;;;;1.23;0.50;;;7.00;99.90;;;;;;4999300;28;20516;-81
2023/03/27 13:03:01;;;;;;;2.90;0.40;;;7.00;99.90;;;;;;5036806;28;20052;-73
2023/03/27 13:05:46;;;;;;;2.50;0.60;;;6.90;99.90;;;;;;5036530;28;20045;-77
2023/03/27 13:08:27;;;;;;;3.38;0.80;;;6.90;99.90;;;;;;5020847;28;20041;-75
2023/03/27 13:10:59;;;;;;;2.90;0.30;;;7.00;99.90;;;;;;5036555;28;20128;-76
2023/03/27 13:13:37;;;;;;;1.70;0.27;;;7.20;99.90;;;;;;5037320;28;20048;-82
2023/03/27 13:16:18;;;;;;;1.63;0.30;;;7.00;99.90;;;;;;5036201;28;20509;-77
2023/03/27 13:18:55;;;;;;;3.70;0.50;;;7.20;99.90;;;;;;5036440;28;20045;-78
2023/03/27 13:21:45;;;;;;;2.67;0.38;;;7.30;99.90;;;;;;5019840;28;20135;-82
2023/03/27 13:24:35;;;;;;;4.55;0.40;;;7.40;99.90;;;;;;5036239;28;20048;-82
2023/03/27 13:27:22;;;;;;;3.00;0.63;;;7.50;99.90;;;;;;5036531;28;20047;-81
2023/03/27 13:29:50;;;;;;;4.47;0.30;;;7.50;99.90;;;;;;5053869;28;20106;-80